Time,TemperatureF,DewpointF,PressureIn,WindDirection,WindDirectionDegrees,WindSpeedMPH,WindSpeedGustMPH,Humidity,HourlyPrecipIn,Conditions,Clouds,dailyrainin,SoftwareType,DateUTC
2013-09-21 00:00:00,59.7,57.7,30.04,East,84,0.0,238.9,93,0.07,,,0.00,VWS V14.01,2013-09-21 04:00:00,
2013-09-21 00:01:00,60.2,57.7,30.03,East,84,0.0,238.9,92,0.07,,,0.00,VWS V14.01,2013-09-21 04:01:00,
2013-09-21 00:02:00,60.2,57.7,30.04,East,84,0.0,238.9,91,0.07,,,0.00,VWS V14.01,2013-09-21 04:02:00,
2013-09-21 00:03:00,60.1,57.6,30.04,East,84,0.0,238.9,91,0.07,,,0.00,VWS V14.01,2013-09-21 04:03:00,
2013-09-21 00:04:00,60.1,57.6,30.04,East,84,0.0,238.9,92,0.07,,,0.00,VWS V14.01,2013-09-21 04:04:00,
2013-09-21 00:05:00,59.7,57.7,30.04,East,84,0.0,238.9,93,0.07,,,0.00,VWS V14.01,2013-09-21 04:05:00,
2013-09-21 00:06:00,59.7,57.7,30.04,East,84,0.0,238.9,93,0.07,,,0.00,VWS V14.01,2013-09-21 04:06:00,
2013-09-21 00:07:00,59.7,57.7,30.04,East,84,0.0,238.9,93,0.07,,,0.00,VWS V14.01,2013-09-21 04:07:00,
2013-09-21 00:08:00,59.7,57.7,30.04,East,84,0.0,238.9,93,0.07,,,0.00,VWS V14.01,2013-09-21 04:08:00,
2013-09-21 00:09:00,59.7,57.6,30.04,East,84,0.0,238.9,93,0.07,,,0.00,VWS V14.01,2013-09-21 04:09:00,
2013-09-21 00:10:00,60.1,57.6,30.04,East,84,0.0,238.9,92,0.07,,,0.00,VWS V14.01,2013-09-21 04:10:00,
2013-09-21 00:11:00,59.6,57.5,30.04,East,84,0.0,238.9,93,0.07,,,0.00,VWS V14.01,2013-09-21 04:11:00,
2013-09-21 00:12:00,59.6,57.4,30.04,East,84,0.0,238.9,92,0.07,,,0.00,VWS V14.01,2013-09-21 04:12:00,
2013-09-21 00:13:00,59.6,57.4,30.04,East,84,0.0,238.9,92,0.07,,,0.00,VWS V14.01,2013-09-21 04:13:00,
2013-09-21 00:15:00,60.0,57.7,30.04,East,84,0.0,238.9,92,0.07,,,0.00,VWS V14.01,2013-09-21 04:15:00,
2013-09-21 00:16:00,59.5,57.3,30.04,East,84,0.0,238.9,92,0.07,,,0.00,VWS V14.01,2013-09-21 04:16:00,
2013-09-21 00:17:00,59.5,57.5,30.04,East,84,0.0,238.9,93,0.07,,,0.00,VWS V14.01,2013-09-21 04:17:00,
2013-09-21 00:18:00,59.5,57.4,30.04,East,84,0.0,238.9,93,0.07,,,0.00,VWS V14.01,2013-09-21 04:18:00,
2013-09-21 00:19:00,59.5,57.4,30.04,East,84,0.0,238.9,93,0.07,,,0.00,VWS V14.01,2013-09-21 04:19:00,
2013-09-21 00:20:00,59.5,57.4,30.04,East,84,0.0,238.9,93,0.07,,,0.00,VWS V14.01,2013-09-21 04:20:00,
2013-09-21 00:21:00,60.0,57.8,30.04,East,84,0.0,238.9,92,0.07,,,0.00,VWS V14.01,2013-09-21 04:21:00,
2013-09-21 00:22:00,59.5,57.5,30.04,East,84,0.0,238.9,93,0.07,,,0.00,VWS V14.01,2013-09-21 04:22:00,
2013-09-21 00:23:00,59.4,57.4,30.04,East,84,0.0,238.9,93,0.07,,,0.00,VWS V14.01,2013-09-21 04:23:00,
2013-09-21 00:24:00,59.4,57.4,30.04,East,84,0.0,238.9,93,0.07,,,0.00,VWS V14.01,2013-09-21 04:24:00,
2013-09-21 00:25:00,59.4,57.4,30.04,East,84,0.0,238.9,93,0.07,,,0.00,VWS V14.01,2013-09-21 04:25:00,
2013-09-21 00:26:00,59.9,57.8,30.04,East,84,0.0,238.9,93,0.07,,,0.00,VWS V14.01,2013-09-21 04:26:00,
2013-09-21 00:27:00,59.4,57.4,30.04,East,84,0.0,238.9,93,0.07,,,0.00,VWS V14.01,2013-09-21 04:27:00,
2013-09-21 00:28:00,59.5,57.5,30.04,East,84,0.0,238.9,93,0.07,,,0.00,VWS V14.01,2013-09-21 04:28:00,
2013-09-21 00:29:00,59.5,57.5,30.05,East,84,0.0,238.9,93,0.07,,,0.00,VWS V14.01,2013-09-21 04:29:00,
2013-09-21 00:30:00,59.5,57.5,30.05,East,84,0.0,238.9,93,0.07,,,0.00,VWS V14.01,2013-09-21 04:30:00,
2013-09-21 00:31:00,59.5,57.4,30.05,East,84,0.0,238.9,93,0.07,,,0.00,VWS V14.01,2013-09-21 04:31:00,
2013-09-21 00:32:00,59.8,57.6,30.04,East,84,0.0,238.9,92,0.07,,,0.00,VWS V14.01,2013-09-21 04:32:00,
2013-09-21 00:33:00,59.4,57.3,30.05,East,84,0.0,238.9,93,0.07,,,0.00,VWS V14.01,2013-09-21 04:33:00,
2013-09-21 00:35:00,59.4,57.3,30.05,East,84,0.0,238.9,93,0.07,,,0.00,VWS V14.01,2013-09-21 04:35:00,
2013-09-21 00:36:00,59.4,57.3,30.05,East,84,0.0,238.9,93,0.07,,,0.00,VWS V14.01,2013-09-21 04:36:00,
2013-09-21 00:37:00,59.7,57.5,30.04,East,84,0.0,238.9,92,0.07,,,0.00,VWS V14.01,2013-09-21 04:37:00,
2013-09-21 00:38:00,59.3,57.2,30.04,East,84,0.0,238.9,93,0.07,,,0.00,VWS V14.01,2013-09-21 04:38:00,
2013-09-21 00:39:00,59.3,57.2,30.04,East,84,0.0,238.9,93,0.07,,,0.00,VWS V14.01,2013-09-21 04:39:00,
2013-09-21 00:40:00,59.3,57.3,30.04,East,84,0.0,238.9,93,0.07,,,0.00,VWS V14.01,2013-09-21 04:40:00,
2013-09-21 00:41:00,59.3,57.2,30.04,East,84,0.0,238.9,93,0.07,,,0.00,VWS V14.01,2013-09-21 04:41:00,
2013-09-21 00:42:00,59.3,57.2,30.04,East,84,0.0,238.9,93,0.07,,,0.00,VWS V14.01,2013-09-21 04:42:00,
2013-09-21 00:43:00,59.7,57.6,30.04,East,84,0.0,238.9,93,0.07,,,0.00,VWS V14.01,2013-09-21 04:43:00,
2013-09-21 00:44:00,59.3,57.4,30.04,East,84,0.0,238.9,93,0.07,,,0.00,VWS V14.01,2013-09-21 04:44:00,
2013-09-21 00:45:00,59.2,57.2,30.04,East,84,0.0,238.9,93,0.07,,,0.00,VWS V14.01,2013-09-21 04:45:00,
2013-09-21 00:46:00,59.2,57.2,30.04,East,84,0.0,238.9,93,0.07,,,0.00,VWS V14.01,2013-09-21 04:46:00,
2013-09-21 00:47:00,59.2,57.2,30.04,East,84,0.0,238.9,93,0.07,,,0.00,VWS V14.01,2013-09-21 04:47:00,
2013-09-21 00:48:00,59.7,57.6,30.04,East,84,0.0,238.9,93,0.07,,,0.00,VWS V14.01,2013-09-21 04:48:00,
2013-09-21 00:49:00,59.2,57.2,30.04,East,84,0.0,238.9,93,0.07,,,0.00,VWS V14.01,2013-09-21 04:49:00,
2013-09-21 00:50:00,59.1,57.0,30.04,East,84,0.0,238.9,93,0.07,,,0.00,VWS V14.01,2013-09-21 04:50:00,
2013-09-21 00:51:00,59.1,57.0,30.04,East,84,0.0,238.9,93,0.07,,,0.00,VWS V14.01,2013-09-21 04:51:00,
2013-09-21 00:52:00,59.1,57.0,30.04,East,84,0.0,238.9,93,0.07,,,0.00,VWS V14.01,2013-09-21 04:52:00,
2013-09-21 00:53:00,59.0,56.9,30.04,East,84,0.0,238.9,93,0.07,,,0.00,VWS V14.01,2013-09-21 04:53:00,
2013-09-21 00:54:00,59.8,57.9,30.04,East,84,0.0,238.9,94,0.07,,,0.00,VWS V14.01,2013-09-21 04:54:00,
2013-09-21 00:55:00,59.0,56.9,30.04,East,84,0.0,238.9,93,0.07,,,0.00,VWS V14.01,2013-09-21 04:55:00,
2013-09-21 00:56:00,58.9,56.8,30.04,East,84,0.0,238.9,93,0.07,,,0.00,VWS V14.01,2013-09-21 04:56:00,
2013-09-21 00:57:00,58.9,56.7,30.04,East,84,0.0,238.9,92,0.07,,,0.00,VWS V14.01,2013-09-21 04:57:00,
2013-09-21 00:58:00,58.9,56.7,30.04,East,84,0.0,238.9,92,0.07,,,0.00,VWS V14.01,2013-09-21 04:58:00,
2013-09-21 00:59:00,58.9,56.7,30.04,East,84,0.0,238.9,92,0.07,,,0.00,VWS V14.01,2013-09-21 04:59:00,
2013-09-21 01:00:00,58.9,56.8,30.04,East,84,0.0,238.9,93,0.07,,,0.00,VWS V14.01,2013-09-21 05:00:00,
2013-09-21 01:02:00,58.8,56.7,30.04,East,84,0.0,238.9,93,0.07,,,0.00,VWS V14.01,2013-09-21 05:02:00,
2013-09-21 01:03:00,58.8,56.7,30.04,East,84,0.0,238.9,93,0.07,,,0.00,VWS V14.01,2013-09-21 05:03:00,
2013-09-21 01:04:00,58.7,56.6,30.04,East,84,0.0,238.9,93,0.07,,,0.00,VWS V14.01,2013-09-21 05:04:00,
2013-09-21 01:05:00,58.8,56.8,30.04,East,84,0.0,238.9,93,0.07,,,0.00,VWS V14.01,2013-09-21 05:05:00,
2013-09-21 01:06:00,58.7,56.8,30.04,East,84,0.0,238.9,93,0.07,,,0.00,VWS V14.01,2013-09-21 05:06:00,
2013-09-21 01:07:00,58.8,56.8,30.04,East,84,0.0,238.9,93,0.07,,,0.00,VWS V14.01,2013-09-21 05:07:00,
2013-09-21 01:08:00,58.7,56.8,30.03,East,84,0.0,238.9,93,0.07,,,0.00,VWS V14.01,2013-09-21 05:08:00,
2013-09-21 01:09:00,58.8,56.8,30.03,East,84,0.0,238.9,93,0.07,,,0.00,VWS V14.01,2013-09-21 05:09:00,
2013-09-21 01:10:00,58.8,56.8,30.03,East,84,0.0,238.9,93,0.07,,,0.00,VWS V14.01,2013-09-21 05:10:00,
2013-09-21 01:11:00,58.8,56.8,30.03,East,84,0.0,238.9,93,0.07,,,0.00,VWS V14.01,2013-09-21 05:11:00,
2013-09-21 01:12:00,58.8,56.9,30.03,East,84,0.0,238.9,93,0.07,,,0.00,VWS V14.01,2013-09-21 05:12:00,
2013-09-21 01:13:00,58.8,56.9,30.03,East,84,0.0,238.9,93,0.07,,,0.00,VWS V14.01,2013-09-21 05:13:00,
2013-09-21 01:14:00,58.8,56.9,30.03,East,84,0.0,238.9,93,0.07,,,0.00,VWS V14.01,2013-09-21 05:14:00,
2013-09-21 01:16:00,58.9,57.1,30.03,East,84,0.0,238.9,94,0.07,,,0.00,VWS V14.01,2013-09-21 05:16:00,
2013-09-21 01:17:00,58.9,57.1,30.03,East,84,0.0,238.9,94,0.07,,,0.00,VWS V14.01,2013-09-21 05:17:00,
2013-09-21 01:18:00,58.9,57.1,30.03,East,84,0.0,238.9,94,0.07,,,0.00,VWS V14.01,2013-09-21 05:18:00,
2013-09-21 01:21:00,59.0,57.2,30.03,East,84,0.0,238.9,94,0.07,,,0.00,VWS V14.01,2013-09-21 05:21:00,
2013-09-21 01:22:00,59.0,57.2,30.03,East,84,0.0,238.9,94,0.07,,,0.00,VWS V14.01,2013-09-21 05:22:00,
2013-09-21 01:27:00,59.0,57.2,30.03,East,84,0.0,238.9,94,0.07,,,0.00,VWS V14.01,2013-09-21 05:27:00,
2013-09-21 01:28:00,59.0,57.2,30.03,East,84,0.0,238.9,94,0.07,,,0.00,VWS V14.01,2013-09-21 05:28:00,
2013-09-21 01:31:00,59.0,57.1,30.03,East,84,0.0,238.9,94,0.07,,,0.00,VWS V14.01,2013-09-21 05:31:00,
2013-09-21 01:32:00,59.0,57.1,30.03,East,84,0.0,238.9,93,0.07,,,0.00,VWS V14.01,2013-09-21 05:32:00,
2013-09-21 01:34:00,59.1,57.2,30.03,East,84,0.0,238.9,94,0.07,,,0.00,VWS V14.01,2013-09-21 05:34:00,
2013-09-21 01:39:00,59.1,57.3,30.02,East,84,0.0,238.9,94,0.07,,,0.00,VWS V14.01,2013-09-21 05:39:00,
2013-09-21 01:40:00,59.1,57.3,30.02,East,84,0.0,238.9,94,0.07,,,0.00,VWS V14.01,2013-09-21 05:40:00,
2013-09-21 01:41:00,59.1,57.3,30.02,East,84,0.0,238.9,94,0.07,,,0.00,VWS V14.01,2013-09-21 05:41:00,
2013-09-21 01:42:00,59.1,57.3,30.02,East,84,0.0,238.9,94,0.07,,,0.00,VWS V14.01,2013-09-21 05:42:00,
2013-09-21 01:47:00,59.1,57.3,30.02,East,84,0.0,238.9,94,0.07,,,0.00,VWS V14.01,2013-09-21 05:47:00,
2013-09-21 01:50:00,59.1,57.3,30.02,East,84,0.0,238.9,94,0.07,,,0.00,VWS V14.01,2013-09-21 05:50:00,
2013-09-21 01:51:00,59.1,57.3,30.02,East,84,0.0,238.9,94,0.07,,,0.00,VWS V14.01,2013-09-21 05:51:00,
2013-09-21 01:52:00,59.1,57.3,30.02,East,84,0.0,238.9,94,0.07,,,0.00,VWS V14.01,2013-09-21 05:52:00,
2013-09-21 01:54:00,59.1,57.3,30.02,East,84,0.0,238.9,94,0.07,,,0.00,VWS V14.01,2013-09-21 05:54:00,
2013-09-21 01:57:00,59.0,57.2,30.02,East,84,0.0,238.9,94,0.07,,,0.00,VWS V14.01,2013-09-21 05:57:00,
2013-09-21 01:59:00,59.1,57.2,30.02,East,84,0.0,238.9,94,0.07,,,0.00,VWS V14.01,2013-09-21 05:59:00,
2013-09-21 02:02:00,59.0,57.2,30.02,East,84,0.0,238.9,94,0.07,,,0.00,VWS V14.01,2013-09-21 06:02:00,
2013-09-21 02:04:00,58.9,57.0,30.02,East,84,0.0,238.9,93,0.07,,,0.00,VWS V14.01,2013-09-21 06:04:00,
2013-09-21 02:05:00,58.9,57.0,30.02,East,84,0.0,238.9,93,0.07,,,0.00,VWS V14.01,2013-09-21 06:05:00,
2013-09-21 02:12:00,58.8,57.0,30.03,East,84,0.0,238.9,94,0.07,,,0.00,VWS V14.01,2013-09-21 06:12:00,
2013-09-21 02:15:00,58.7,56.8,30.01,East,84,0.0,238.9,93,0.07,,,0.00,VWS V14.01,2013-09-21 06:15:00,
2013-09-21 02:17:00,58.9,57.1,30.03,East,84,0.0,238.9,94,0.07,,,0.00,VWS V14.01,2013-09-21 06:17:00,
2013-09-21 02:18:00,58.5,56.6,30.01,East,84,0.0,238.9,94,0.07,,,0.00,VWS V14.01,2013-09-21 06:18:00,
2013-09-21 02:22:00,59.0,57.2,30.03,East,84,0.0,238.9,94,0.07,,,0.00,VWS V14.01,2013-09-21 06:22:00,
2013-09-21 02:25:00,58.4,56.7,30.01,East,84,0.0,238.9,94,0.07,,,0.00,VWS V14.01,2013-09-21 06:25:00,
2013-09-21 02:29:00,59.0,57.1,30.03,East,84,0.0,238.9,93,0.07,,,0.00,VWS V14.01,2013-09-21 06:29:00,
2013-09-21 02:35:00,59.1,57.3,30.02,East,84,0.0,238.9,94,0.07,,,0.00,VWS V14.01,2013-09-21 06:35:00,
2013-09-21 02:40:00,59.1,57.3,30.02,East,84,0.0,238.9,94,0.07,,,0.00,VWS V14.01,2013-09-21 06:40:00,
2013-09-21 02:45:00,59.1,57.3,30.02,East,84,0.0,238.9,94,0.07,,,0.00,VWS V14.01,2013-09-21 06:45:00,
2013-09-21 02:51:00,59.1,57.3,30.02,East,84,0.0,238.9,94,0.07,,,0.00,VWS V14.01,2013-09-21 06:51:00,
2013-09-21 02:53:00,58.4,56.7,30.00,East,84,0.0,238.9,94,0.07,,,0.00,VWS V14.01,2013-09-21 06:53:00,
2013-09-21 02:56:00,59.0,57.1,30.02,East,84,0.0,238.9,94,0.07,,,0.00,VWS V14.01,2013-09-21 06:56:00,
2013-09-21 03:03:00,58.9,57.0,30.02,East,84,0.0,238.9,93,0.07,,,0.00,VWS V14.01,2013-09-21 07:03:00,
2013-09-21 03:08:00,58.8,56.9,30.01,East,84,0.0,238.9,93,0.07,,,0.00,VWS V14.01,2013-09-21 07:08:00,
2013-09-21 03:13:00,58.7,56.8,30.01,East,84,0.0,238.9,93,0.07,,,0.00,VWS V14.01,2013-09-21 07:13:00,
2013-09-21 03:18:00,58.4,56.6,30.01,East,84,0.0,238.9,94,0.07,,,0.00,VWS V14.01,2013-09-21 07:18:00,
2013-09-21 03:23:00,58.4,56.8,30.02,East,84,0.0,238.9,94,0.07,,,0.00,VWS V14.01,2013-09-21 07:23:00,
2013-09-21 03:29:00,58.4,56.7,30.01,East,84,0.0,238.9,94,0.07,,,0.00,VWS V14.01,2013-09-21 07:29:00,
2013-09-21 03:34:00,58.4,56.8,30.01,East,84,0.0,238.9,94,0.07,,,0.00,VWS V14.01,2013-09-21 07:34:00,
2013-09-21 03:40:00,58.4,56.8,30.01,East,84,0.0,238.9,94,0.07,,,0.00,VWS V14.01,2013-09-21 07:40:00,
2013-09-21 03:45:00,58.4,56.7,30.00,East,84,0.0,238.9,94,0.07,,,0.00,VWS V14.01,2013-09-21 07:45:00,
2013-09-21 03:51:00,58.4,56.7,30.00,East,84,0.0,238.9,94,0.07,,,0.00,VWS V14.01,2013-09-21 07:51:00,
2013-09-21 03:56:00,58.4,56.8,30.00,East,84,0.0,238.9,94,0.07,,,0.00,VWS V14.01,2013-09-21 07:56:00,
2013-09-21 04:01:00,58.4,56.9,30.00,East,84,0.0,238.9,95,0.07,,,0.00,VWS V14.01,2013-09-21 08:01:00,
2013-09-21 04:07:00,58.3,56.8,30.00,East,84,0.0,238.9,95,0.07,,,0.00,VWS V14.01,2013-09-21 08:07:00,
2013-09-21 04:12:00,58.3,56.8,30.00,East,84,0.0,238.9,95,0.07,,,0.00,VWS V14.01,2013-09-21 08:12:00,
2013-09-21 04:17:00,58.3,56.8,30.00,East,84,0.0,238.9,95,0.07,,,0.00,VWS V14.01,2013-09-21 08:17:00,
2013-09-21 04:22:00,58.3,56.8,30.00,East,84,0.0,238.9,95,0.07,,,0.00,VWS V14.01,2013-09-21 08:22:00,
2013-09-21 04:27:00,58.2,56.7,30.00,East,84,0.0,238.9,95,0.07,,,0.00,VWS V14.01,2013-09-21 08:27:00,
2013-09-21 04:33:00,58.3,56.7,30.00,East,84,0.0,238.9,94,0.07,,,0.00,VWS V14.01,2013-09-21 08:33:00,
2013-09-21 04:38:00,58.2,56.6,30.00,East,84,0.0,238.9,94,0.07,,,0.00,VWS V14.01,2013-09-21 08:38:00,
2013-09-21 04:43:00,58.1,56.5,30.00,East,84,0.0,238.9,94,0.07,,,0.00,VWS V14.01,2013-09-21 08:43:00,
2013-09-21 04:48:00,58.0,56.4,30.00,East,84,0.0,238.9,94,0.07,,,0.00,VWS V14.01,2013-09-21 08:48:00,
2013-09-21 04:53:00,57.9,56.2,30.00,East,84,0.0,238.9,94,0.07,,,0.00,VWS V14.01,2013-09-21 08:53:00,
2013-09-21 04:58:00,57.8,56.2,30.00,East,84,0.0,238.9,94,0.07,,,0.00,VWS V14.01,2013-09-21 08:58:00,
2013-09-21 05:04:00,57.6,56.0,30.00,East,84,0.0,238.9,94,0.07,,,0.00,VWS V14.01,2013-09-21 09:04:00,
2013-09-21 05:09:00,57.5,56.0,30.00,East,84,0.0,238.9,95,0.07,,,0.00,VWS V14.01,2013-09-21 09:09:00,
2013-09-21 05:14:00,57.4,56.0,30.00,East,84,0.0,238.9,95,0.07,,,0.00,VWS V14.01,2013-09-21 09:14:00,
2013-09-21 05:19:00,57.4,55.9,30.00,East,84,0.0,238.9,95,0.07,,,0.00,VWS V14.01,2013-09-21 09:19:00,
2013-09-21 05:24:00,57.4,56.0,30.00,East,84,0.0,238.9,95,0.07,,,0.00,VWS V14.01,2013-09-21 09:24:00,
2013-09-21 05:30:00,57.4,56.1,30.00,East,84,0.0,238.9,95,0.07,,,0.00,VWS V14.01,2013-09-21 09:30:00,
2013-09-21 05:35:00,57.5,56.2,30.00,East,84,0.0,238.9,95,0.07,,,0.00,VWS V14.01,2013-09-21 09:35:00,
2013-09-21 05:40:00,57.5,56.3,30.00,East,84,0.0,238.9,96,0.07,,,0.00,VWS V14.01,2013-09-21 09:40:00,
2013-09-21 05:46:00,57.8,56.6,30.00,East,84,0.0,238.9,96,0.07,,,0.00,VWS V14.01,2013-09-21 09:46:00,
2013-09-21 05:52:00,57.8,56.5,30.00,East,84,0.0,238.9,96,0.07,,,0.00,VWS V14.01,2013-09-21 09:52:00,
2013-09-21 05:57:00,57.8,56.5,30.00,East,84,0.0,238.9,96,0.07,,,0.00,VWS V14.01,2013-09-21 09:57:00,
2013-09-21 06:03:00,57.8,56.5,30.00,East,84,0.0,238.9,96,0.07,,,0.00,VWS V14.01,2013-09-21 10:03:00,
2013-09-21 06:08:00,57.8,56.5,30.00,East,84,0.0,238.9,96,0.07,,,0.00,VWS V14.01,2013-09-21 10:08:00,
2013-09-21 06:14:00,57.9,56.7,30.00,East,84,0.0,238.9,96,0.07,,,0.00,VWS V14.01,2013-09-21 10:14:00,
2013-09-21 06:20:00,57.9,56.7,30.00,East,84,0.0,238.9,96,0.07,,,0.00,VWS V14.01,2013-09-21 10:20:00,
2013-09-21 06:25:00,58.0,56.8,30.00,East,84,0.0,238.9,96,0.07,,,0.00,VWS V14.01,2013-09-21 10:25:00,
2013-09-21 06:31:00,58.0,56.8,30.00,East,84,0.0,238.9,96,0.07,,,0.00,VWS V14.01,2013-09-21 10:31:00,
2013-09-21 06:37:00,58.3,57.2,30.00,East,84,0.0,238.9,96,0.07,,,0.00,VWS V14.01,2013-09-21 10:37:00,
2013-09-21 06:42:00,58.4,57.3,30.00,East,84,0.0,238.9,96,0.07,,,0.00,VWS V14.01,2013-09-21 10:42:00,
2013-09-21 06:48:00,58.7,57.6,30.00,East,84,0.0,238.9,96,0.07,,,0.00,VWS V14.01,2013-09-21 10:48:00,
2013-09-21 06:53:00,58.8,57.7,30.00,East,84,0.0,238.9,96,0.07,,,0.00,VWS V14.01,2013-09-21 10:53:00,
2013-09-21 06:59:00,59.0,57.9,30.00,East,84,0.0,238.9,96,0.07,,,0.00,VWS V14.01,2013-09-21 10:59:00,
2013-09-21 07:05:00,59.1,58.1,30.00,East,84,0.0,238.9,96,0.07,,,0.00,VWS V14.01,2013-09-21 11:05:00,
2013-09-21 07:11:00,59.2,58.2,30.00,East,84,0.0,238.9,96,0.07,,,0.00,VWS V14.01,2013-09-21 11:11:00,
2013-09-21 07:16:00,59.4,58.4,30.00,East,84,0.0,238.9,96,0.07,,,0.00,VWS V14.01,2013-09-21 11:16:00,
2013-09-21 07:22:00,59.5,58.5,29.99,East,84,0.0,238.9,96,0.07,,,0.00,VWS V14.01,2013-09-21 11:22:00,
2013-09-21 07:28:00,59.4,58.4,30.00,East,84,0.0,238.9,96,0.07,,,0.00,VWS V14.01,2013-09-21 11:28:00,
2013-09-21 07:34:00,59.6,58.6,30.00,East,84,0.0,238.9,97,0.07,,,0.00,VWS V14.01,2013-09-21 11:34:00,
2013-09-21 07:39:00,59.7,58.8,30.00,East,84,0.0,238.9,97,0.07,,,0.00,VWS V14.01,2013-09-21 11:39:00,
2013-09-21 07:45:00,59.8,58.8,30.00,East,84,0.0,238.9,97,0.07,,,0.00,VWS V14.01,2013-09-21 11:45:00,
2013-09-21 07:50:00,60.0,59.0,30.00,East,84,0.0,238.9,96,0.07,,,0.00,VWS V14.01,2013-09-21 11:50:00,
2013-09-21 07:56:00,60.1,59.1,30.00,East,84,0.0,238.9,96,0.07,,,0.00,VWS V14.01,2013-09-21 11:56:00,
2013-09-21 08:02:00,60.3,59.2,30.00,East,84,0.0,238.9,96,0.07,,,0.00,VWS V14.01,2013-09-21 12:02:00,
2013-09-21 08:08:00,60.4,59.3,30.00,East,84,0.0,238.9,96,0.07,,,0.00,VWS V14.01,2013-09-21 12:08:00,
2013-09-21 08:13:00,60.5,59.4,30.00,East,84,0.0,238.9,96,0.07,,,0.00,VWS V14.01,2013-09-21 12:13:00,
2013-09-21 08:19:00,60.8,59.6,30.00,East,84,0.0,238.9,96,0.07,,,0.00,VWS V14.01,2013-09-21 12:19:00,
2013-09-21 08:24:00,61.0,59.8,29.99,East,84,0.0,238.9,96,0.07,,,0.00,VWS V14.01,2013-09-21 12:24:00,
2013-09-21 08:29:00,61.3,60.0,29.98,East,84,0.0,238.9,95,0.07,,,0.00,VWS V14.01,2013-09-21 12:29:00,
2013-09-21 08:35:00,61.3,59.8,29.98,East,84,0.0,238.9,95,0.07,,,0.00,VWS V14.01,2013-09-21 12:35:00,
2013-09-21 08:40:00,61.3,59.8,29.98,East,84,0.0,238.9,95,0.07,,,0.00,VWS V14.01,2013-09-21 12:40:00,
2013-09-21 08:45:00,61.5,60.0,29.98,East,84,0.0,238.9,95,0.07,,,0.00,VWS V14.01,2013-09-21 12:45:00,
2013-09-21 08:50:00,61.8,60.3,29.98,East,84,0.0,238.9,95,0.07,,,0.00,VWS V14.01,2013-09-21 12:50:00,
2013-09-21 08:55:00,62.4,60.8,29.98,East,84,0.0,238.9,95,0.07,,,0.00,VWS V14.01,2013-09-21 12:55:00,
2013-09-21 09:01:00,62.7,60.9,29.98,East,84,0.0,238.9,94,0.07,,,0.00,VWS V14.01,2013-09-21 13:01:00,
2013-09-21 09:06:00,63.0,61.1,29.98,East,84,0.0,238.9,94,0.07,,,0.00,VWS V14.01,2013-09-21 13:06:00,
2013-09-21 09:11:00,63.2,61.1,29.98,East,84,0.0,238.9,93,0.07,,,0.00,VWS V14.01,2013-09-21 13:11:00,
2013-09-21 09:16:00,63.6,61.4,29.98,East,84,0.0,238.9,92,0.07,,,0.00,VWS V14.01,2013-09-21 13:16:00,
2013-09-21 09:21:00,63.9,61.5,29.98,East,84,0.0,238.9,92,0.07,,,0.00,VWS V14.01,2013-09-21 13:21:00,
2013-09-21 09:27:00,64.0,61.3,29.98,East,84,0.0,238.9,91,0.07,,,0.00,VWS V14.01,2013-09-21 13:27:00,
2013-09-21 09:32:00,64.4,61.6,29.97,East,84,0.0,238.9,90,0.07,,,0.00,VWS V14.01,2013-09-21 13:32:00,
2013-09-21 09:37:00,64.7,61.5,29.97,East,84,0.0,238.9,89,0.07,,,0.00,VWS V14.01,2013-09-21 13:37:00,
2013-09-21 09:42:00,64.7,61.5,29.97,East,84,0.0,238.9,89,0.07,,,0.00,VWS V14.01,2013-09-21 13:42:00,
2013-09-21 09:47:00,65.0,61.8,29.97,East,84,0.0,238.9,89,0.07,,,0.00,VWS V14.01,2013-09-21 13:47:00,
2013-09-21 09:53:00,65.1,61.8,29.97,East,84,0.0,238.9,89,0.07,,,0.00,VWS V14.01,2013-09-21 13:53:00,
2013-09-21 09:58:00,65.4,61.9,29.96,East,84,0.0,238.9,88,0.07,,,0.00,VWS V14.01,2013-09-21 13:58:00,
2013-09-21 10:03:00,65.9,61.9,29.96,East,84,0.0,238.9,87,0.07,,,0.00,VWS V14.01,2013-09-21 14:03:00,
2013-09-21 10:08:00,66.0,61.4,29.96,East,84,0.0,238.9,85,0.07,,,0.00,VWS V14.01,2013-09-21 14:08:00,
2013-09-21 10:13:00,66.2,61.7,29.95,East,84,0.0,238.9,85,0.07,,,0.00,VWS V14.01,2013-09-21 14:13:00,
2013-09-21 10:18:00,66.4,61.5,29.95,East,84,0.0,238.9,84,0.07,,,0.00,VWS V14.01,2013-09-21 14:18:00,
2013-09-21 10:24:00,66.8,62.0,29.95,East,84,0.0,238.9,85,0.07,,,0.00,VWS V14.01,2013-09-21 14:24:00,
2013-09-21 10:29:00,67.0,62.0,29.95,East,84,0.0,238.9,84,0.07,,,0.00,VWS V14.01,2013-09-21 14:29:00,
2013-09-21 10:34:00,67.4,62.0,29.95,East,84,0.0,238.9,83,0.07,,,0.00,VWS V14.01,2013-09-21 14:34:00,
2013-09-21 10:39:00,67.8,62.0,29.95,East,84,0.0,238.9,82,0.07,,,0.00,VWS V14.01,2013-09-21 14:39:00,
2013-09-21 10:44:00,68.1,62.2,29.94,East,84,0.0,238.9,81,0.07,,,0.00,VWS V14.01,2013-09-21 14:44:00,
2013-09-21 10:50:00,68.3,62.4,29.94,East,84,0.0,238.9,81,0.07,,,0.00,VWS V14.01,2013-09-21 14:50:00,
2013-09-21 10:55:00,68.4,62.5,29.94,East,84,0.0,238.9,81,0.07,,,0.00,VWS V14.01,2013-09-21 14:55:00,
2013-09-21 11:00:00,68.4,62.5,29.94,East,84,0.0,238.9,81,0.07,,,0.00,VWS V14.01,2013-09-21 15:00:00,
2013-09-21 11:05:00,68.3,62.4,29.94,East,84,0.0,238.9,81,0.07,,,0.00,VWS V14.01,2013-09-21 15:05:00,
2013-09-21 11:10:00,68.1,62.1,29.93,East,84,0.0,238.9,81,0.07,,,0.00,VWS V14.01,2013-09-21 15:10:00,
2013-09-21 11:15:00,68.1,62.3,29.93,East,84,0.0,238.9,82,0.07,,,0.00,VWS V14.01,2013-09-21 15:15:00,
2013-09-21 11:21:00,68.0,62.4,29.93,East,84,0.0,238.9,82,0.07,,,0.00,VWS V14.01,2013-09-21 15:21:00,
2013-09-21 11:26:00,68.0,62.4,29.93,East,84,0.0,238.9,82,0.07,,,0.00,VWS V14.01,2013-09-21 15:26:00,
2013-09-21 11:31:00,68.1,62.9,29.92,East,84,0.0,238.9,84,0.07,,,0.00,VWS V14.01,2013-09-21 15:31:00,
2013-09-21 11:36:00,68.3,62.9,29.92,East,84,0.0,238.9,83,0.07,,,0.00,VWS V14.01,2013-09-21 15:36:00,
2013-09-21 11:42:00,68.5,62.9,29.92,East,84,0.0,238.9,82,0.07,,,0.00,VWS V14.01,2013-09-21 15:42:00,
2013-09-21 11:47:00,68.9,63.3,29.92,East,84,0.0,238.9,82,0.07,,,0.00,VWS V14.01,2013-09-21 15:47:00,
2013-09-21 11:52:00,69.5,63.6,29.92,East,84,0.0,238.9,82,0.07,,,0.00,VWS V14.01,2013-09-21 15:52:00,
2013-09-21 11:57:00,69.7,63.5,29.92,East,84,0.0,238.9,81,0.07,,,0.00,VWS V14.01,2013-09-21 15:57:00,
2013-09-21 12:02:00,70.2,63.8,29.92,East,84,0.0,238.9,80,0.07,,,0.00,VWS V14.01,2013-09-21 16:02:00,
2013-09-21 12:07:00,70.6,63.7,29.91,East,84,0.0,238.9,79,0.07,,,0.00,VWS V14.01,2013-09-21 16:07:00,
2013-09-21 12:13:00,70.9,64.1,29.91,East,84,0.0,238.9,79,0.07,,,0.00,VWS V14.01,2013-09-21 16:13:00,
2013-09-21 12:18:00,71.1,64.3,29.91,East,84,0.0,238.9,79,0.07,,,0.00,VWS V14.01,2013-09-21 16:18:00,
2013-09-21 12:23:00,71.3,64.3,29.91,East,84,0.0,238.9,78,0.07,,,0.00,VWS V14.01,2013-09-21 16:23:00,
2013-09-21 12:28:00,71.8,64.4,29.91,East,84,0.0,238.9,78,0.07,,,0.00,VWS V14.01,2013-09-21 16:28:00,
2013-09-21 12:33:00,71.9,64.0,29.91,East,84,0.0,238.9,76,0.07,,,0.00,VWS V14.01,2013-09-21 16:33:00,
2013-09-21 12:39:00,72.1,64.2,29.90,East,84,0.0,238.9,76,0.07,,,0.00,VWS V14.01,2013-09-21 16:39:00,
2013-09-21 12:44:00,71.9,64.2,29.90,East,84,0.0,238.9,77,0.07,,,0.00,VWS V14.01,2013-09-21 16:44:00,
2013-09-21 12:49:00,71.8,64.3,29.89,East,84,0.0,238.9,77,0.07,,,0.00,VWS V14.01,2013-09-21 16:49:00,
2013-09-21 12:54:00,71.9,64.6,29.89,East,84,0.0,238.9,78,0.07,,,0.00,VWS V14.01,2013-09-21 16:54:00,
2013-09-21 12:59:00,71.8,64.5,29.89,East,84,0.0,238.9,78,0.07,,,0.00,VWS V14.01,2013-09-21 16:59:00,
2013-09-21 13:05:00,71.8,64.5,29.89,East,84,0.0,238.9,78,0.07,,,0.00,VWS V14.01,2013-09-21 17:05:00,
2013-09-21 13:10:00,71.8,64.4,29.88,East,84,0.0,238.9,78,0.07,,,0.00,VWS V14.01,2013-09-21 17:10:00,
2013-09-21 13:15:00,71.8,64.7,29.88,East,84,0.0,238.9,78,0.07,,,0.00,VWS V14.01,2013-09-21 17:15:00,
2013-09-21 13:20:00,72.3,64.9,29.88,East,84,0.0,238.9,78,0.07,,,0.00,VWS V14.01,2013-09-21 17:20:00,
2013-09-21 13:25:00,72.4,65.1,29.88,East,84,0.0,238.9,78,0.07,,,0.00,VWS V14.01,2013-09-21 17:25:00,
2013-09-21 13:30:00,72.3,65.2,29.87,East,84,0.0,238.9,78,0.07,,,0.00,VWS V14.01,2013-09-21 17:30:00,
2013-09-21 13:36:00,71.9,64.7,29.87,East,84,0.0,238.9,78,0.07,,,0.00,VWS V14.01,2013-09-21 17:36:00,
2013-09-21 13:41:00,71.5,65.0,29.87,East,84,0.0,238.9,80,0.07,,,0.00,VWS V14.01,2013-09-21 17:41:00,
2013-09-21 13:46:00,71.6,65.2,29.86,East,84,0.0,238.9,80,0.07,,,0.00,VWS V14.01,2013-09-21 17:46:00,
2013-09-21 13:51:00,71.5,65.1,29.86,East,84,0.0,238.9,80,0.07,,,0.00,VWS V14.01,2013-09-21 17:51:00,
2013-09-21 13:56:00,71.5,65.5,29.86,East,84,0.0,238.9,81,0.07,,,0.00,VWS V14.01,2013-09-21 17:56:00,
2013-09-21 14:02:00,71.4,65.8,29.86,East,84,0.0,238.9,83,0.07,,,0.00,VWS V14.01,2013-09-21 18:02:00,
2013-09-21 14:07:00,72.1,66.0,29.85,East,84,0.0,238.9,81,0.07,,,0.00,VWS V14.01,2013-09-21 18:07:00,
2013-09-21 14:12:00,73.1,65.5,29.84,East,84,0.0,238.9,77,0.07,,,0.00,VWS V14.01,2013-09-21 18:12:00,
2013-09-21 14:17:00,73.4,65.4,29.84,East,84,0.0,238.9,76,0.07,,,0.00,VWS V14.01,2013-09-21 18:17:00,
2013-09-21 14:22:00,73.0,65.0,29.84,East,84,0.0,238.9,76,0.07,,,0.00,VWS V14.01,2013-09-21 18:22:00,
2013-09-21 14:28:00,72.8,65.7,29.84,East,84,0.0,238.9,78,0.07,,,0.00,VWS V14.01,2013-09-21 18:28:00,
2013-09-21 14:33:00,73.0,65.8,29.83,East,84,0.0,238.9,78,0.07,,,0.00,VWS V14.01,2013-09-21 18:33:00,
2013-09-21 14:38:00,73.6,65.6,29.83,East,84,0.0,238.9,76,0.07,,,0.00,VWS V14.01,2013-09-21 18:38:00,
2013-09-21 14:43:00,74.0,65.2,29.83,East,84,0.0,238.9,74,0.07,,,0.00,VWS V14.01,2013-09-21 18:43:00,
2013-09-21 14:48:00,74.1,64.8,29.82,East,84,0.0,238.9,73,0.07,,,0.00,VWS V14.01,2013-09-21 18:48:00,
2013-09-21 14:53:00,74.2,64.4,29.82,NNE,17,0.0,238.9,72,0.07,,,0.00,VWS V14.01,2013-09-21 18:53:00,
2013-09-21 14:59:00,74.3,64.7,29.82,NNE,17,0.0,238.9,72,0.07,,,0.00,VWS V14.01,2013-09-21 18:59:00,
2013-09-21 15:04:00,74.2,65.0,29.82,NNE,17,0.0,238.9,73,0.07,,,0.00,VWS V14.01,2013-09-21 19:04:00,
2013-09-21 15:09:00,74.2,64.8,29.82,NNE,17,0.0,238.9,72,0.07,,,0.00,VWS V14.01,2013-09-21 19:09:00,
2013-09-21 15:14:00,74.4,65.0,29.81,NNE,17,0.0,238.9,72,0.07,,,0.00,VWS V14.01,2013-09-21 19:14:00,
2013-09-21 15:20:00,74.3,64.6,29.81,NNE,17,0.0,238.9,72,0.07,,,0.00,VWS V14.01,2013-09-21 19:20:00,
2013-09-21 15:25:00,74.0,64.2,29.81,NNE,17,0.0,238.9,72,0.07,,,0.00,VWS V14.01,2013-09-21 19:25:00,
2013-09-21 15:30:00,74.2,64.2,29.81,NNE,17,0.0,238.9,71,0.07,,,0.00,VWS V14.01,2013-09-21 19:30:00,
2013-09-21 15:36:00,74.4,64.2,29.81,NNE,17,0.0,238.9,70,0.07,,,0.00,VWS V14.01,2013-09-21 19:36:00,
2013-09-21 15:41:00,74.2,63.9,29.81,NNE,17,0.0,238.9,70,0.07,,,0.00,VWS V14.01,2013-09-21 19:41:00,
2013-09-21 15:46:00,74.1,64.2,29.81,NNE,17,0.0,238.9,71,0.07,,,0.00,VWS V14.01,2013-09-21 19:46:00,
2013-09-21 15:52:00,74.0,64.4,29.80,NNE,17,0.0,238.9,72,0.07,,,0.00,VWS V14.01,2013-09-21 19:52:00,
2013-09-21 15:57:00,74.1,64.7,29.80,NNE,17,0.0,238.9,72,0.07,,,0.00,VWS V14.01,2013-09-21 19:57:00,
2013-09-21 16:03:00,74.1,64.5,29.80,NNE,17,0.0,238.9,72,0.07,,,0.00,VWS V14.01,2013-09-21 20:03:00,
2013-09-21 16:08:00,74.2,64.1,29.80,NNE,17,0.0,238.9,71,0.07,,,0.00,VWS V14.01,2013-09-21 20:08:00,
2013-09-21 16:13:00,74.4,64.2,29.80,NNE,17,0.0,238.9,70,0.07,,,0.00,VWS V14.01,2013-09-21 20:13:00,
2013-09-21 16:19:00,74.8,65.0,29.79,NNE,17,0.0,238.9,72,0.07,,,0.00,VWS V14.01,2013-09-21 20:19:00,
2013-09-21 16:24:00,75.3,65.0,29.79,NNE,17,0.0,238.9,70,0.07,,,0.00,VWS V14.01,2013-09-21 20:24:00,
2013-09-21 16:30:00,75.3,64.4,29.79,NNE,17,0.0,238.9,69,0.07,,,0.00,VWS V14.01,2013-09-21 20:30:00,
2013-09-21 16:36:00,74.8,64.4,29.79,NNE,17,0.0,238.9,70,0.07,,,0.00,VWS V14.01,2013-09-21 20:36:00,
2013-09-21 16:41:00,74.4,64.8,29.79,NNE,17,0.0,238.9,72,0.07,,,0.00,VWS V14.01,2013-09-21 20:41:00,
2013-09-21 16:47:00,74.0,64.6,29.79,NNE,17,0.0,238.9,72,0.07,,,0.00,VWS V14.01,2013-09-21 20:47:00,
2013-09-21 16:52:00,73.7,64.9,29.79,NNE,17,0.0,238.9,74,0.07,,,0.00,VWS V14.01,2013-09-21 20:52:00,
2013-09-21 16:58:00,73.5,64.7,29.79,NNE,17,0.0,238.9,74,0.07,,,0.00,VWS V14.01,2013-09-21 20:58:00,
2013-09-21 17:03:00,73.5,64.9,29.79,NNE,17,0.0,238.9,74,0.07,,,0.00,VWS V14.01,2013-09-21 21:03:00,
2013-09-21 17:09:00,73.4,64.8,29.79,NNE,17,0.0,238.9,75,0.07,,,0.00,VWS V14.01,2013-09-21 21:09:00,
2013-09-21 17:14:00,73.2,65.2,29.79,NNE,17,0.0,238.9,76,0.07,,,0.00,VWS V14.01,2013-09-21 21:14:00,
2013-09-21 17:20:00,72.9,65.0,29.79,NNE,17,0.0,238.9,76,0.07,,,0.00,VWS V14.01,2013-09-21 21:20:00,
2013-09-21 17:25:00,72.7,65.2,29.78,NNE,17,0.0,238.9,77,0.07,,,0.00,VWS V14.01,2013-09-21 21:25:00,
2013-09-21 17:31:00,72.7,65.4,29.78,NNE,17,0.0,238.9,78,0.07,,,0.00,VWS V14.01,2013-09-21 21:31:00,
2013-09-21 17:37:00,72.8,65.1,29.78,NNE,17,0.0,238.9,77,0.07,,,0.00,VWS V14.01,2013-09-21 21:37:00,
2013-09-21 17:42:00,72.6,65.0,29.78,NNE,17,0.0,238.9,77,0.07,,,0.00,VWS V14.01,2013-09-21 21:42:00,
2013-09-21 17:48:00,72.3,65.1,29.78,NNE,17,0.0,238.9,78,0.07,,,0.00,VWS V14.01,2013-09-21 21:48:00,
2013-09-21 17:53:00,72.1,64.9,29.78,NNE,17,0.0,238.9,78,0.07,,,0.00,VWS V14.01,2013-09-21 21:53:00,
2013-09-21 17:59:00,71.9,65.0,29.78,NNE,17,0.0,238.9,79,0.07,,,0.00,VWS V14.01,2013-09-21 21:59:00,
2013-09-21 18:05:00,71.7,65.2,29.77,NNE,17,0.0,238.9,80,0.07,,,0.00,VWS V14.01,2013-09-21 22:05:00,
2013-09-21 18:10:00,71.5,65.2,29.77,NNE,17,0.0,238.9,80,0.07,,,0.00,VWS V14.01,2013-09-21 22:10:00,
2013-09-21 18:15:00,71.2,65.2,29.77,NNE,17,0.0,238.9,81,0.07,,,0.00,VWS V14.01,2013-09-21 22:15:00,
2013-09-21 18:21:00,71.0,65.4,29.77,NNE,17,0.0,238.9,83,0.07,,,0.00,VWS V14.01,2013-09-21 22:21:00,
2013-09-21 18:27:00,70.7,65.5,29.77,NNE,17,0.0,238.9,84,0.07,,,0.00,VWS V14.01,2013-09-21 22:27:00,
2013-09-21 18:33:00,70.5,65.3,29.77,NNE,17,0.0,238.9,84,0.07,,,0.00,VWS V14.01,2013-09-21 22:33:00,
2013-09-21 18:38:00,70.6,65.2,29.76,NNE,17,0.0,238.9,83,0.07,,,0.00,VWS V14.01,2013-09-21 22:38:00,
2013-09-21 18:43:00,70.5,65.3,29.76,NNE,17,0.0,238.9,84,0.07,,,0.00,VWS V14.01,2013-09-21 22:43:00,
2013-09-21 18:49:00,70.4,65.2,29.76,NNE,17,0.0,238.9,84,0.07,,,0.00,VWS V14.01,2013-09-21 22:49:00,
2013-09-21 18:54:00,70.2,65.3,29.76,NNE,17,0.0,238.9,84,0.07,,,0.00,VWS V14.01,2013-09-21 22:54:00,
2013-09-21 18:59:00,70.1,65.4,29.76,NNE,17,0.0,238.9,85,0.07,,,0.00,VWS V14.01,2013-09-21 22:59:00,
2013-09-21 19:04:00,70.0,65.3,29.76,NNE,17,0.0,238.9,85,0.07,,,0.00,VWS V14.01,2013-09-21 23:04:00,
2013-09-21 19:09:00,70.1,65.4,29.76,NNE,17,0.0,238.9,85,0.07,,,0.00,VWS V14.01,2013-09-21 23:09:00,
2013-09-21 19:15:00,70.2,65.5,29.76,NNE,17,0.0,238.9,85,0.07,,,0.00,VWS V14.01,2013-09-21 23:15:00,
2013-09-21 19:20:00,70.2,65.6,29.76,NNE,17,0.0,238.9,85,0.07,,,0.00,VWS V14.01,2013-09-21 23:20:00,
2013-09-21 19:25:00,70.1,65.8,29.76,NNE,17,0.0,238.9,86,0.07,,,0.00,VWS V14.01,2013-09-21 23:25:00,
2013-09-21 19:30:00,70.0,65.6,29.76,NNE,17,0.0,238.9,86,0.07,,,0.00,VWS V14.01,2013-09-21 23:30:00,
2013-09-21 19:35:00,70.1,65.7,29.76,NNE,17,0.0,238.9,86,0.07,,,0.00,VWS V14.01,2013-09-21 23:35:00,
2013-09-21 19:41:00,70.0,65.8,29.77,NNE,17,0.0,238.9,86,0.07,,,0.00,VWS V14.01,2013-09-21 23:41:00,
2013-09-21 19:46:00,69.9,65.9,29.77,NNE,17,0.0,238.9,87,0.07,,,0.00,VWS V14.01,2013-09-21 23:46:00,
2013-09-21 19:51:00,69.8,65.9,29.76,NNE,17,0.0,238.9,87,0.07,,,0.00,VWS V14.01,2013-09-21 23:51:00,
2013-09-21 19:56:00,69.8,65.9,29.77,NNE,17,0.0,238.9,87,0.07,,,0.00,VWS V14.01,2013-09-21 23:56:00,
2013-09-21 20:01:00,69.7,65.9,29.77,NNE,17,0.0,238.9,88,0.07,,,0.00,VWS V14.01,2013-09-22 00:01:00,
2013-09-21 20:07:00,69.6,66.0,29.77,NNE,17,0.0,238.9,88,0.07,,,0.00,VWS V14.01,2013-09-22 00:07:00,
2013-09-21 20:12:00,69.5,65.9,29.76,NNE,17,0.0,238.9,88,0.07,,,0.00,VWS V14.01,2013-09-22 00:12:00,
2013-09-21 20:17:00,69.5,66.1,29.76,NNE,17,0.0,238.9,89,0.07,,,0.00,VWS V14.01,2013-09-22 00:17:00,
2013-09-21 20:22:00,69.5,66.1,29.76,NNE,17,0.0,238.9,89,0.07,,,0.00,VWS V14.01,2013-09-22 00:22:00,
2013-09-21 20:27:00,69.4,66.0,29.76,NNE,17,0.0,238.9,89,0.07,,,0.00,VWS V14.01,2013-09-22 00:27:00,
2013-09-21 20:33:00,69.5,66.1,29.76,NNE,17,0.0,238.9,89,0.07,,,0.00,VWS V14.01,2013-09-22 00:33:00,
2013-09-21 20:38:00,69.4,66.1,29.76,NNE,17,0.0,238.9,89,0.07,,,0.00,VWS V14.01,2013-09-22 00:38:00,
2013-09-21 20:43:00,69.5,66.2,29.76,NNE,17,0.0,238.9,89,0.07,,,0.00,VWS V14.01,2013-09-22 00:43:00,
2013-09-21 20:48:00,69.5,66.2,29.75,NNE,17,0.0,238.9,89,0.07,,,0.00,VWS V14.01,2013-09-22 00:48:00,
2013-09-21 20:53:00,69.4,66.1,29.75,NNE,17,0.0,238.9,89,0.07,,,0.00,VWS V14.01,2013-09-22 00:53:00,
2013-09-21 20:59:00,69.5,66.3,29.75,NNE,17,0.0,238.9,90,0.07,,,0.00,VWS V14.01,2013-09-22 00:59:00,
2013-09-21 21:04:00,69.4,66.2,29.75,NNE,17,0.0,238.9,90,0.07,,,0.00,VWS V14.01,2013-09-22 01:04:00,
2013-09-21 21:09:00,69.4,66.3,29.74,NNE,17,0.0,238.9,90,0.07,,,0.00,VWS V14.01,2013-09-22 01:09:00,
2013-09-21 21:14:00,69.4,66.4,29.74,NNE,17,0.0,238.9,90,0.07,,,0.00,VWS V14.01,2013-09-22 01:14:00,
2013-09-21 21:19:00,69.4,66.4,29.74,NNE,17,0.0,238.9,90,0.07,,,0.00,VWS V14.01,2013-09-22 01:19:00,
2013-09-21 21:25:00,69.4,66.4,29.74,NNE,17,0.0,238.9,90,0.07,,,0.00,VWS V14.01,2013-09-22 01:25:00,
2013-09-21 21:30:00,69.5,66.5,29.74,NNE,17,0.0,238.9,90,0.07,,,0.00,VWS V14.01,2013-09-22 01:30:00,
2013-09-21 21:35:00,69.4,66.4,29.74,NNE,17,0.0,238.9,90,0.07,,,0.00,VWS V14.01,2013-09-22 01:35:00,
2013-09-21 21:40:00,69.4,66.5,29.74,NNE,17,0.0,238.9,90,0.07,,,0.00,VWS V14.01,2013-09-22 01:40:00,
2013-09-21 21:45:00,69.5,66.7,29.73,NNE,17,0.0,238.9,91,0.07,,,0.00,VWS V14.01,2013-09-22 01:45:00,
2013-09-21 21:50:00,69.4,66.7,29.74,NNE,17,0.0,238.9,91,0.07,,,0.00,VWS V14.01,2013-09-22 01:50:00,
2013-09-21 21:56:00,69.3,66.7,29.73,NNE,17,0.0,238.9,91,0.07,,,0.00,VWS V14.01,2013-09-22 01:56:00,
2013-09-21 22:01:00,69.2,66.7,29.73,NNE,17,0.0,238.9,92,0.07,,,0.00,VWS V14.01,2013-09-22 02:01:00,
2013-09-21 22:07:00,69.1,66.7,29.73,NNE,17,0.0,238.9,92,0.07,,,0.00,VWS V14.01,2013-09-22 02:07:00,
2013-09-21 22:12:00,69.1,66.7,29.73,NNE,17,0.0,238.9,92,0.08,,,0.01,VWS V14.01,2013-09-22 02:12:00,
2013-09-21 22:17:00,69.0,66.8,29.73,NNE,17,0.0,238.9,93,0.10,,,0.03,VWS V14.01,2013-09-22 02:17:00,
2013-09-21 22:22:00,68.8,66.8,29.73,NNE,17,0.0,238.9,94,0.13,,,0.06,VWS V14.01,2013-09-22 02:22:00,
2013-09-21 22:28:00,68.8,66.9,29.73,NNE,17,0.0,238.9,94,0.15,,,0.08,VWS V14.01,2013-09-22 02:28:00,
2013-09-21 22:33:00,68.6,66.8,29.73,NNE,17,0.0,238.9,94,0.19,,,0.12,VWS V14.01,2013-09-22 02:33:00,
2013-09-21 22:38:00,68.6,66.9,29.72,NNE,17,0.0,238.9,94,0.23,,,0.16,VWS V14.01,2013-09-22 02:38:00,
2013-09-21 22:43:00,68.5,66.8,29.72,NNE,17,0.0,238.9,94,0.24,,,0.17,VWS V14.01,2013-09-22 02:43:00,
2013-09-21 22:48:00,68.4,66.8,29.72,NNE,17,0.0,238.9,94,0.25,,,0.18,VWS V14.01,2013-09-22 02:48:00,
2013-09-21 22:54:00,68.5,66.9,29.71,NNE,17,0.0,238.9,95,0.27,,,0.20,VWS V14.01,2013-09-22 02:54:00,
2013-09-21 22:59:00,68.5,67.0,29.71,NNE,17,0.0,238.9,95,0.29,,,0.22,VWS V14.01,2013-09-22 02:59:00,
2013-09-21 23:04:00,68.4,66.9,29.71,NNE,17,0.0,238.9,95,0.30,,,0.23,VWS V14.01,2013-09-22 03:04:00,
2013-09-21 23:09:00,68.4,66.9,29.71,NNE,17,0.0,238.9,95,0.32,,,0.25,VWS V14.01,2013-09-22 03:09:00,
2013-09-21 23:14:00,68.4,66.9,29.71,NNE,17,0.0,238.9,95,0.36,,,0.29,VWS V14.01,2013-09-22 03:14:00,
2013-09-21 23:19:00,68.4,67.0,29.70,NNE,17,0.0,238.9,95,0.38,,,0.31,VWS V14.01,2013-09-22 03:19:00,
2013-09-21 23:25:00,68.4,67.0,29.70,NNE,17,0.0,238.9,95,0.40,,,0.33,VWS V14.01,2013-09-22 03:25:00,
2013-09-21 23:30:00,68.4,67.1,29.70,NNE,17,0.0,238.9,96,0.41,,,0.34,VWS V14.01,2013-09-22 03:30:00,
2013-09-21 23:35:00,68.4,67.1,29.70,NNE,17,0.0,238.9,96,0.42,,,0.35,VWS V14.01,2013-09-22 03:35:00,
2013-09-21 23:40:00,68.3,67.0,29.70,NNE,17,0.0,238.9,96,0.52,,,0.45,VWS V14.01,2013-09-22 03:40:00,
2013-09-21 23:45:00,68.3,67.1,29.69,NNE,17,0.0,238.9,96,0.68,,,0.61,VWS V14.01,2013-09-22 03:45:00,
2013-09-21 23:51:00,68.2,67.1,29.70,NNE,17,0.0,238.9,96,0.86,,,0.79,VWS V14.01,2013-09-22 03:51:00,
2013-09-21 23:56:00,68.1,66.9,29.69,NNE,17,0.0,238.9,96,0.92,,,0.85,VWS V14.01,2013-09-22 03:56:00,